createdAt,value
2023-02-23T00:02:11.376Z,8.70
2023-02-23T00:04:38.414Z,8.70
2023-02-23T00:07:12.018Z,8.70
2023-02-23T00:09:40.358Z,8.70
2023-02-23T00:12:12.498Z,8.70
2023-02-23T00:14:39.384Z,8.70
2023-02-23T00:17:17.548Z,8.70
2023-02-23T00:19:51.413Z,8.80
2023-02-23T00:22:18.496Z,8.70
2023-02-23T00:24:47.658Z,8.80
2023-02-23T00:27:18.522Z,8.80
2023-02-23T00:29:49.176Z,8.90
2023-02-23T00:32:22.469Z,8.80
2023-02-23T00:34:52.439Z,8.80
2023-02-23T00:37:21.998Z,8.80
2023-02-23T00:39:49.611Z,8.80
2023-02-23T00:42:19.481Z,8.80
2023-02-23T00:44:47.570Z,8.70
2023-02-23T00:47:14.604Z,8.70
2023-02-23T00:49:47.225Z,8.70
2023-02-23T00:52:17.123Z,8.80
2023-02-23T00:54:43.981Z,8.70
2023-02-23T00:57:10.751Z,8.70
2023-02-23T00:59:40.543Z,8.70
2023-02-23T01:02:14.493Z,8.70
2023-02-23T01:04:41.465Z,8.60
2023-02-23T01:07:15.488Z,8.60
2023-02-23T01:09:42.300Z,8.60
2023-02-23T01:12:09.046Z,8.60
2023-02-23T01:14:37.522Z,8.70
2023-02-23T01:17:04.313Z,8.70
2023-02-23T01:19:34.039Z,8.70
2023-02-23T01:22:02.309Z,8.70
2023-02-23T01:24:29.417Z,8.70
2023-02-23T01:26:58.475Z,8.70
2023-02-23T01:29:25.217Z,8.70
2023-02-23T01:31:52.265Z,8.70
2023-02-23T01:34:24.122Z,8.80
2023-02-23T01:36:50.977Z,8.80
2023-02-23T01:39:22.902Z,8.90
2023-02-23T01:41:51.740Z,8.90
2023-02-23T01:44:18.451Z,9.00
2023-02-23T01:46:47.385Z,8.90
2023-02-23T01:49:21.442Z,9.00
2023-02-23T01:52:20.772Z,8.90
2023-02-23T01:54:53.493Z,8.90
2023-02-23T01:57:24.887Z,8.80
2023-02-23T01:59:53.583Z,8.90
2023-02-23T02:02:27.612Z,8.90
2023-02-23T02:04:56.355Z,8.80
2023-02-23T02:07:28.136Z,8.80
2023-02-23T02:10:16.077Z,8.80
2023-02-23T02:12:56.807Z,8.70
2023-02-23T02:15:27.986Z,8.80
2023-02-23T02:18:19.100Z,8.80
2023-02-23T02:21:46.972Z,8.80
2023-02-23T02:25:11.870Z,8.70
2023-02-23T02:28:18.683Z,8.70
2023-02-23T02:31:26.937Z,8.70
2023-02-23T02:34:38.601Z,8.70
2023-02-23T02:37:28.793Z,8.70
2023-02-23T02:40:23.834Z,8.80
2023-02-23T02:43:00.767Z,8.70
2023-02-23T02:45:51.290Z,8.70
2023-02-23T02:48:38.538Z,8.70
2023-02-23T02:51:17.461Z,8.70
2023-02-23T02:54:10.575Z,8.70
2023-02-23T02:56:41.773Z,8.70
2023-02-23T02:59:33.549Z,8.70
2023-02-23T03:02:19.271Z,8.70
2023-02-23T03:05:05.345Z,8.60
2023-02-23T03:08:09.370Z,8.60
2023-02-23T03:11:33.866Z,8.60
2023-02-23T03:15:14.147Z,8.60
2023-02-23T03:18:17.314Z,8.60
2023-02-23T03:21:12.750Z,8.60
2023-02-23T03:24:13.238Z,8.70
2023-02-23T03:27:18.255Z,8.70
2023-02-23T03:30:24.840Z,8.70
2023-02-23T03:33:18.291Z,8.70
2023-02-23T03:36:24.949Z,8.80
2023-02-23T03:39:38.508Z,8.80
2023-02-23T03:42:32.422Z,8.80
2023-02-23T03:45:24.838Z,8.70
2023-02-23T03:48:14.711Z,8.70
2023-02-23T03:51:08.261Z,8.70
2023-02-23T03:54:30.483Z,8.70
2023-02-23T03:57:21.589Z,8.80
2023-02-23T04:00:22.285Z,8.70
2023-02-23T04:03:11.779Z,8.80
2023-02-23T04:06:00.483Z,8.70
2023-02-23T04:08:54.972Z,8.70
2023-02-23T04:12:22.238Z,8.70
2023-02-23T04:14:56.245Z,8.70
2023-02-23T04:17:31.635Z,8.70
2023-02-23T04:20:01.401Z,8.70
2023-02-23T04:22:30.542Z,8.70
2023-02-23T04:27:37.914Z,8.60
2023-02-23T04:30:06.083Z,8.60
2023-02-23T04:32:32.980Z,8.60
2023-02-23T04:35:03.433Z,8.50
2023-02-23T04:37:30.169Z,8.50
2023-02-23T04:39:56.925Z,8.50
2023-02-23T04:42:23.807Z,8.40
2023-02-23T04:44:53.115Z,8.30
2023-02-23T04:47:19.822Z,8.30
2023-02-23T04:49:49.288Z,8.30
2023-02-23T04:52:16.317Z,8.30
2023-02-23T04:54:43.355Z,8.30
2023-02-23T04:57:10.675Z,8.30
2023-02-23T04:59:37.815Z,8.30
2023-02-23T05:02:04.871Z,8.30
2023-02-23T05:04:35.424Z,8.30
2023-02-23T05:07:03.645Z,8.30
2023-02-23T05:09:31.811Z,8.30
2023-02-23T05:11:58.753Z,8.40
2023-02-23T05:14:25.715Z,8.40
2023-02-23T05:16:52.618Z,8.50
2023-02-23T05:19:19.627Z,8.40
2023-02-23T05:21:46.446Z,8.40
2023-02-23T05:24:13.455Z,8.40
2023-02-23T05:26:40.330Z,8.40
2023-02-23T05:29:07.204Z,8.40
2023-02-23T05:31:36.167Z,8.30
2023-02-23T05:34:03.423Z,8.40
2023-02-23T05:36:30.208Z,8.50
2023-02-23T05:38:57.165Z,8.40
2023-02-23T05:41:24.200Z,8.40
2023-02-23T05:43:52.648Z,8.40
2023-02-23T05:46:27.190Z,8.40
2023-02-23T05:49:00.804Z,8.40
2023-02-23T05:51:31.025Z,8.40
2023-02-23T05:53:58.094Z,8.40
2023-02-23T05:56:26.123Z,8.40
2023-02-23T05:58:57.744Z,8.50
2023-02-23T06:01:27.158Z,8.50
2023-02-23T06:03:59.674Z,8.50
2023-02-23T06:06:28.365Z,8.50
2023-02-23T06:08:55.674Z,8.50
2023-02-23T06:11:23.234Z,8.60
2023-02-23T06:13:50.097Z,8.60
2023-02-23T06:16:17.094Z,8.60
2023-02-23T06:18:54.263Z,8.60
2023-02-23T06:21:21.388Z,8.60
2023-02-23T06:23:48.353Z,8.50
2023-02-23T06:26:15.066Z,8.70
2023-02-23T06:28:47.892Z,8.60
2023-02-23T06:31:14.645Z,8.70
2023-02-23T06:33:41.423Z,8.60
2023-02-23T06:36:22.955Z,8.60
2023-02-23T06:38:49.941Z,8.50
2023-02-23T06:41:17.968Z,8.50
2023-02-23T06:43:45.432Z,8.60
2023-02-23T06:46:12.198Z,8.60
2023-02-23T06:48:39.387Z,8.70
2023-02-23T06:51:06.293Z,8.60
2023-02-23T06:53:33.587Z,8.60
2023-02-23T06:56:00.494Z,8.60
2023-02-23T06:58:30.529Z,8.60
2023-02-23T07:00:59.455Z,8.50
2023-02-23T07:03:26.553Z,8.50
2023-02-23T07:05:54.202Z,8.50
2023-02-23T07:08:20.981Z,8.50
2023-02-23T07:10:47.826Z,8.50
2023-02-23T07:13:14.640Z,8.40
2023-02-23T07:15:47.077Z,8.50
2023-02-23T07:18:13.808Z,8.50
2023-02-23T07:20:40.580Z,8.50
2023-02-23T07:23:07.362Z,8.50
2023-02-23T07:25:34.435Z,8.50
2023-02-23T07:28:02.717Z,8.40
2023-02-23T07:30:29.671Z,8.40
2023-02-23T07:32:56.501Z,8.40
2023-02-23T07:35:23.225Z,8.40
2023-02-23T07:37:50.148Z,8.40
2023-02-23T07:40:17.780Z,8.40
2023-02-23T07:42:44.731Z,8.40
2023-02-23T07:45:12.169Z,8.40
2023-02-23T07:47:39.397Z,8.40
2023-02-23T07:50:10.479Z,8.40
2023-02-23T07:52:39.398Z,8.40
2023-02-23T07:55:08.453Z,8.40
2023-02-23T07:57:36.157Z,8.50
2023-02-23T08:00:04.773Z,8.40
2023-02-23T08:02:32.572Z,8.50
2023-02-23T08:04:59.777Z,8.50
2023-02-23T08:07:26.594Z,8.50
2023-02-23T08:09:55.333Z,8.50
2023-02-23T08:12:22.053Z,8.50
2023-02-23T08:14:48.779Z,8.50
2023-02-23T08:17:15.569Z,8.40
2023-02-23T08:19:42.377Z,8.40
2023-02-23T08:22:10.213Z,8.40
2023-02-23T08:24:37.876Z,8.50
2023-02-23T08:27:05.068Z,8.50
2023-02-23T08:29:32.167Z,8.50
2023-02-23T08:31:59.021Z,8.50
2023-02-23T08:34:25.987Z,8.50
2023-02-23T08:36:53.870Z,8.50
2023-02-23T08:39:21.577Z,8.50
2023-02-23T08:41:48.403Z,8.50
2023-02-23T08:44:15.164Z,8.50
2023-02-23T08:46:42.456Z,8.60
2023-02-23T08:49:10.676Z,8.50
2023-02-23T08:51:37.552Z,8.50
2023-02-23T08:54:04.359Z,8.60
2023-02-23T08:56:31.823Z,8.60
2023-02-23T08:58:58.648Z,8.60
2023-02-23T09:01:28.176Z,8.60
2023-02-23T09:03:58.127Z,8.60
2023-02-23T09:06:26.359Z,8.70
2023-02-23T09:08:55.260Z,8.70
2023-02-23T09:11:23.729Z,8.70
2023-02-23T09:13:54.879Z,8.70
2023-02-23T09:16:21.622Z,8.70
2023-02-23T09:18:48.628Z,8.80
2023-02-23T09:21:25.297Z,8.80
2023-02-23T09:23:54.864Z,8.90
2023-02-23T09:26:23.921Z,8.80
2023-02-23T09:28:51.123Z,8.90
2023-02-23T09:31:23.532Z,8.80
2023-02-23T09:33:51.632Z,8.80
2023-02-23T09:36:25.275Z,8.80
2023-02-23T09:38:57.168Z,8.80
2023-02-23T09:41:48.091Z,8.90
2023-02-23T09:44:24.923Z,8.80
2023-02-23T09:47:13.035Z,8.80
2023-02-23T09:49:44.595Z,8.80
2023-02-23T09:52:22.396Z,8.80
2023-02-23T09:54:49.462Z,8.80
2023-02-23T09:57:27.264Z,8.90
2023-02-23T09:59:54.076Z,8.90
2023-02-23T10:03:06.365Z,8.90
2023-02-23T10:05:48.151Z,8.90
2023-02-23T10:08:52.287Z,8.90
2023-02-23T10:11:43.115Z,8.90
2023-02-23T10:14:38.208Z,8.90
2023-02-23T10:17:24.543Z,8.90
2023-02-23T10:20:17.175Z,8.90
2023-02-23T10:22:48.130Z,9.00
2023-02-23T10:25:24.007Z,9.00
2023-02-23T10:27:53.973Z,8.90
2023-02-23T10:30:49.586Z,8.90
2023-02-23T10:33:38.223Z,8.90
2023-02-23T10:36:19.640Z,8.90
2023-02-23T10:38:47.229Z,8.90
2023-02-23T10:41:15.033Z,9.00
2023-02-23T10:43:42.219Z,8.90
2023-02-23T10:46:21.223Z,9.00
2023-02-23T10:48:52.661Z,9.00
2023-02-23T10:51:30.025Z,8.90
2023-02-23T10:53:56.766Z,9.00
2023-02-23T10:56:24.739Z,9.00
2023-02-23T10:58:58.867Z,9.10
2023-02-23T11:01:41.822Z,9.20
2023-02-23T11:04:34.640Z,9.30
2023-02-23T11:07:23.460Z,9.30
2023-02-23T11:09:53.497Z,9.30
2023-02-23T11:12:36.718Z,9.30
2023-02-23T11:15:22.498Z,9.30
2023-02-23T11:18:05.826Z,9.20
2023-02-23T11:20:41.984Z,9.30
2023-02-23T11:23:15.833Z,9.20
2023-02-23T11:25:45.479Z,9.10
2023-02-23T11:28:40.329Z,9.10
2023-02-23T11:31:22.497Z,9.00
2023-02-23T11:33:58.544Z,9.00
2023-02-23T11:36:34.062Z,8.90
2023-02-23T11:39:19.915Z,8.90
2023-02-23T11:41:47.143Z,8.90
2023-02-23T11:44:23.871Z,8.80
2023-02-23T11:46:52.275Z,8.80
2023-02-23T11:49:33.142Z,8.90
2023-02-23T11:52:00.014Z,8.90
2023-02-23T11:54:35.348Z,8.70
2023-02-23T11:57:02.730Z,8.80
2023-02-23T11:59:41.575Z,8.80
2023-02-23T12:02:22.964Z,8.80
2023-02-23T12:05:06.315Z,8.90
2023-02-23T12:07:54.156Z,9.00
2023-02-23T12:10:27.192Z,9.00
2023-02-23T12:13:30.627Z,9.00
2023-02-23T12:16:06.521Z,9.00
2023-02-23T12:19:02.003Z,9.00
2023-02-23T12:22:57.883Z,9.00
2023-02-23T12:26:21.420Z,9.10
2023-02-23T12:29:21.358Z,9.20
2023-02-23T12:31:58.579Z,9.10
2023-02-23T12:35:02.409Z,9.10
2023-02-23T12:37:36.983Z,9.10
2023-02-23T12:40:28.086Z,9.00
2023-02-23T12:43:19.840Z,9.10
2023-02-23T12:46:09.148Z,9.10
2023-02-23T12:49:13.765Z,9.00
2023-02-23T12:52:02.470Z,9.10
2023-02-23T12:54:30.458Z,9.20
2023-02-23T12:57:31.077Z,9.20
2023-02-23T13:00:35.975Z,9.20
2023-02-23T13:03:37.348Z,9.30
2023-02-23T13:06:36.656Z,9.30
2023-02-23T13:09:25.894Z,9.30
2023-02-23T13:12:17.214Z,9.40
2023-02-23T13:14:48.803Z,9.50
2023-02-23T13:17:40.870Z,9.60
2023-02-23T13:20:36.281Z,9.60
2023-02-23T13:23:41.039Z,9.60
2023-02-23T13:26:19.469Z,9.50
2023-02-23T13:29:05.286Z,9.40
2023-02-23T13:31:41.605Z,9.50
2023-02-23T13:34:26.179Z,9.50
2023-02-23T13:36:54.766Z,9.50
2023-02-23T13:39:58.984Z,9.40
2023-02-23T13:43:23.154Z,9.40
2023-02-23T13:46:25.645Z,9.50
2023-02-23T13:49:04.955Z,9.40
2023-02-23T13:51:45.546Z,9.40
2023-02-23T13:54:16.346Z,9.30
2023-02-23T13:56:56.494Z,9.20
2023-02-23T13:59:33.371Z,9.30
2023-02-23T14:02:40.869Z,9.30
2023-02-23T14:05:29.158Z,9.40
2023-02-23T14:08:02.886Z,9.30
2023-02-23T14:10:43.746Z,9.30
2023-02-23T14:13:13.568Z,9.30
2023-02-23T14:15:50.022Z,9.20
2023-02-23T14:18:25.164Z,9.30
2023-02-23T14:21:13.603Z,9.30
2023-02-23T14:24:23.506Z,9.40
2023-02-23T14:27:41.672Z,9.40
2023-02-23T14:30:12.906Z,9.40
2023-02-23T14:32:47.042Z,9.40
2023-02-23T14:35:32.615Z,9.40
2023-02-23T14:38:07.607Z,9.40
2023-02-23T14:40:40.901Z,9.30
2023-02-23T14:43:43.120Z,9.40
2023-02-23T14:46:25.101Z,9.30
2023-02-23T14:49:10.158Z,9.30
2023-02-23T14:51:56.553Z,9.30
2023-02-23T14:54:39.613Z,9.40
2023-02-23T14:57:22.646Z,9.50
2023-02-23T15:00:06.653Z,9.50
2023-02-23T15:02:40.776Z,9.50
2023-02-23T15:05:17.575Z,9.50
2023-02-23T15:07:45.731Z,9.50
2023-02-23T15:10:33.974Z,9.50
2023-02-23T15:13:09.272Z,9.40
2023-02-23T15:15:45.481Z,9.50
2023-02-23T15:18:32.588Z,9.20
2023-02-23T15:21:01.791Z,9.20
2023-02-23T15:23:37.698Z,9.20
2023-02-23T15:26:31.793Z,9.10
2023-02-23T15:29:10.601Z,9.10
2023-02-23T15:31:50.386Z,8.90
2023-02-23T15:34:29.966Z,8.70
2023-02-23T15:37:07.602Z,8.60
2023-02-23T15:40:20.503Z,8.50
2023-02-23T15:43:01.274Z,8.30
2023-02-23T15:45:43.448Z,8.30
2023-02-23T15:48:18.506Z,8.30
2023-02-23T15:50:50.251Z,8.20
2023-02-23T15:53:32.815Z,8.10
2023-02-23T15:56:29.179Z,8.00
2023-02-23T15:59:05.609Z,8.00
2023-02-23T16:01:33.185Z,8.00
2023-02-23T16:04:09.206Z,8.00
2023-02-23T16:07:11.618Z,7.90
2023-02-23T16:09:39.440Z,7.90
2023-02-23T16:12:29.137Z,7.90
2023-02-23T16:15:05.088Z,7.90
2023-02-23T16:17:48.372Z,7.90
2023-02-23T16:20:29.001Z,7.90
2023-02-23T16:22:58.079Z,8.00
2023-02-23T16:25:27.770Z,8.00
2023-02-23T16:28:09.507Z,8.00
2023-02-23T16:30:43.703Z,7.80
2023-02-23T16:33:24.748Z,7.90
2023-02-23T16:36:04.803Z,7.80
2023-02-23T16:38:52.873Z,7.90
2023-02-23T16:41:22.366Z,7.90
2023-02-23T16:43:52.039Z,7.80
2023-02-23T16:46:23.121Z,7.70
2023-02-23T16:48:51.685Z,7.70
2023-02-23T16:51:23.573Z,7.60
2023-02-23T16:53:52.505Z,7.60
2023-02-23T16:56:25.570Z,7.60
2023-02-23T16:59:01.781Z,7.60
2023-02-23T17:01:28.648Z,7.60
2023-02-23T17:03:55.750Z,7.60
2023-02-23T17:06:23.225Z,7.70
2023-02-23T17:08:58.028Z,7.60
2023-02-23T17:11:26.135Z,7.60
2023-02-23T17:13:53.081Z,7.50
2023-02-23T17:16:20.177Z,7.60
2023-02-23T17:18:47.361Z,7.50
2023-02-23T17:21:14.961Z,7.40
2023-02-23T17:23:50.662Z,7.50
2023-02-23T17:26:24.386Z,7.30
2023-02-23T17:28:52.085Z,7.40
2023-02-23T17:31:24.094Z,7.40
2023-02-23T17:33:53.674Z,7.40
2023-02-23T17:37:00.371Z,7.40
2023-02-23T17:39:28.080Z,7.40
2023-02-23T17:41:55.787Z,7.50
2023-02-23T17:44:25.215Z,7.40
2023-02-23T17:46:52.078Z,7.40
2023-02-23T17:49:18.956Z,7.40
2023-02-23T17:51:45.661Z,7.30
2023-02-23T17:54:12.599Z,7.30
2023-02-23T17:56:39.438Z,7.30
2023-02-23T17:59:06.361Z,7.30
2023-02-23T18:01:33.274Z,7.40
2023-02-23T18:04:00.728Z,7.40
2023-02-23T18:06:30.696Z,7.40
2023-02-23T18:09:01.085Z,7.30
2023-02-23T18:11:28.074Z,7.30
2023-02-23T18:13:54.887Z,7.40
2023-02-23T18:16:23.378Z,7.40
2023-02-23T18:18:50.285Z,7.40
2023-02-23T18:21:21.475Z,7.30
2023-02-23T18:23:50.258Z,7.20
2023-02-23T18:26:23.909Z,7.30
2023-02-23T18:28:55.754Z,7.30
2023-02-23T18:31:29.218Z,7.20
2023-02-23T18:34:00.208Z,7.30
2023-02-23T18:36:38.134Z,7.30
2023-02-23T18:39:12.590Z,7.30
2023-02-23T18:41:41.672Z,7.20
2023-02-23T18:44:14.724Z,7.20
2023-02-23T18:46:43.009Z,7.20
2023-02-23T18:49:23.236Z,7.10
2023-02-23T18:51:50.533Z,7.20
2023-02-23T18:54:18.501Z,7.10
2023-02-23T18:56:47.670Z,7.10
2023-02-23T18:59:15.389Z,7.10
2023-02-23T19:01:45.219Z,7.20
2023-02-23T19:04:12.705Z,7.20
2023-02-23T19:06:44.025Z,7.20
2023-02-23T19:09:13.228Z,7.20
2023-02-23T19:11:42.699Z,7.10
2023-02-23T19:14:18.214Z,7.20
2023-02-23T19:16:46.692Z,7.20
2023-02-23T19:19:16.768Z,7.10
2023-02-23T19:21:43.616Z,7.10
2023-02-23T19:24:10.678Z,7.10
2023-02-23T19:26:38.787Z,7.10
2023-02-23T19:29:06.201Z,7.10
2023-02-23T19:31:34.347Z,7.20
2023-02-23T19:34:04.964Z,7.10
2023-02-23T19:36:33.863Z,7.10
2023-02-23T19:39:15.665Z,7.10
2023-02-23T19:41:44.799Z,7.20
2023-02-23T19:44:11.732Z,7.10
2023-02-23T19:46:40.063Z,7.20
2023-02-23T19:49:08.013Z,7.10
2023-02-23T19:51:35.917Z,7.10
2023-02-23T19:54:05.552Z,7.10
2023-02-23T19:56:32.545Z,7.20
2023-02-23T19:59:02.245Z,7.20
2023-02-23T20:01:29.948Z,7.40
2023-02-23T20:04:06.839Z,7.30
2023-02-23T20:06:41.123Z,7.30
2023-02-23T20:09:09.171Z,7.20
2023-02-23T20:11:36.080Z,7.20
2023-02-23T20:14:04.997Z,7.20
2023-02-23T20:16:31.869Z,7.30
2023-02-23T20:18:59.862Z,7.30
2023-02-23T20:21:30.539Z,7.30
2023-02-23T20:23:59.584Z,7.20
2023-02-23T20:26:33.299Z,7.20
2023-02-23T20:29:00.304Z,7.30
2023-02-23T20:31:37.712Z,7.30
2023-02-23T20:34:09.851Z,7.30
2023-02-23T20:36:40.148Z,7.30
2023-02-23T20:39:07.258Z,7.30
2023-02-23T20:41:34.023Z,7.30
2023-02-23T20:44:00.981Z,7.20
2023-02-23T20:46:30.434Z,7.00
2023-02-23T20:48:59.198Z,7.00
2023-02-23T20:51:27.513Z,6.90
2023-02-23T20:53:54.736Z,6.70
2023-02-23T20:56:22.082Z,6.60
2023-02-23T20:58:49.254Z,6.50
2023-02-23T21:01:22.874Z,6.30
2023-02-23T21:03:54.538Z,6.20
2023-02-23T21:06:24.109Z,6.20
2023-02-23T21:08:55.800Z,6.20
2023-02-23T21:11:27.799Z,6.10
2023-02-23T21:13:55.504Z,6.10
2023-02-23T21:16:24.459Z,6.20
2023-02-23T21:19:03.910Z,6.20
2023-02-23T21:21:49.884Z,6.10
2023-02-23T21:24:18.922Z,6.10
2023-02-23T21:26:45.738Z,6.20
2023-02-23T21:29:14.698Z,6.20
2023-02-23T21:31:43.842Z,6.00
2023-02-23T21:34:11.596Z,6.10
2023-02-23T21:36:41.900Z,6.00
2023-02-23T21:39:08.732Z,6.10
2023-02-23T21:41:37.684Z,6.00
2023-02-23T21:44:07.670Z,5.90
2023-02-23T21:46:35.039Z,6.00
2023-02-23T21:49:07.102Z,6.00
2023-02-23T21:51:34.641Z,6.00
2023-02-23T21:54:05.183Z,6.00
2023-02-23T21:56:36.634Z,6.00
2023-02-23T21:59:10.558Z,6.00
2023-02-23T22:01:40.619Z,6.00
2023-02-23T22:04:10.771Z,6.00
2023-02-23T22:06:45.201Z,6.00
2023-02-23T22:09:15.481Z,6.10
2023-02-23T22:11:47.560Z,6.10
2023-02-23T22:14:18.641Z,6.00
2023-02-23T22:16:51.578Z,5.90
2023-02-23T22:19:19.127Z,5.80
2023-02-23T22:21:48.456Z,5.80
2023-02-23T22:24:16.534Z,5.90
2023-02-23T22:26:55.405Z,5.80
2023-02-23T22:29:28.511Z,5.80
2023-02-23T22:31:55.682Z,5.80
2023-02-23T22:34:25.873Z,5.80
2023-02-23T22:36:52.834Z,5.70
2023-02-23T22:39:19.964Z,5.70
2023-02-23T22:41:50.084Z,5.70
2023-02-23T22:44:22.673Z,5.70
2023-02-23T22:46:49.718Z,5.70
2023-02-23T22:49:19.747Z,5.70
2023-02-23T22:51:47.182Z,5.60
2023-02-23T22:54:14.458Z,5.60
2023-02-23T22:56:42.332Z,5.60
2023-02-23T22:59:11.093Z,5.50
2023-02-23T23:01:39.497Z,5.50
2023-02-23T23:04:10.283Z,5.50
2023-02-23T23:06:40.209Z,5.50
2023-02-23T23:09:08.922Z,5.50
2023-02-23T23:11:41.692Z,5.40
2023-02-23T23:14:11.612Z,5.30
2023-02-23T23:16:48.149Z,5.20
2023-02-23T23:19:22.562Z,5.20
2023-02-23T23:21:55.426Z,5.10
2023-02-23T23:24:24.994Z,5.10
2023-02-23T23:26:55.496Z,5.10
2023-02-23T23:29:25.612Z,5.10
2023-02-23T23:31:53.568Z,5.00
2023-02-23T23:34:21.697Z,5.00
2023-02-23T23:36:50.346Z,5.00
2023-02-23T23:39:20.395Z,5.00
2023-02-23T23:41:49.484Z,5.00
2023-02-23T23:44:23.438Z,5.00
2023-02-23T23:46:53.818Z,5.00
2023-02-23T23:49:25.613Z,4.90
2023-02-23T23:51:58.931Z,4.90
2023-02-23T23:54:32.503Z,4.70
2023-02-23T23:57:05.744Z,4.80
2023-02-23T23:59:35.226Z,4.80
